»·PEaware :: FDX1436 KOAK-KSAN

FDX1436 :: KOAK-KSAN

FLIGHT INFORMATION

Flight Status: Arrived
Operator:
Federal Express
More flights by this operator :: More flights under this callsign
Pilot: Anonymous 10623 (10623)
Aircraft: AIRBUS A310
(A310)
More flights by this aircraft type
Origin: KOAK Metro Oakland Intl
United States
Destination: KSAN San Diego Intl-Lindbergh
United States
More flights between these airports :: More routes between these airports
Route: COAST9 MCKEY LAX COMIX2
File this flight plan on PilotEdge
Remarks:
Altitude:
(Current/Filed)
35,000ft
Speed:
(Current/Filed)
466kts
Departed: 15-Sep-21 12:43 PM
Arrived: 15-Sep-21 01:55 PM
Distance/Time
Traveled:
388nm/1:12
Distance/Time
To Go:
Arrived

Flight Plot

Page will automatically refresh every two minutes.

Flight plan parsing failed; only flown route is shown


Map Options




Map Legend


Flown Route
Filed Route
Departure Airport
Arrival Airport
Navaid (VOR, NDB)
Fix

Horizontal Profiles

Position Reports

Time Latitude Longitude Heading Altitude Ground
Speed
15-Sep-21 12:08 37.716920 -122.220734 310 17ft 0kts
15-Sep-21 12:09 37.716920 -122.220734 310 17ft 0kts
15-Sep-21 12:10 37.716920 -122.220734 310 17ft 0kts
15-Sep-21 12:11 37.716920 -122.220734 310 17ft 0kts
15-Sep-21 12:12 37.716920 -122.220734 310 17ft 0kts
15-Sep-21 12:13 37.716920 -122.220734 310 17ft 0kts
15-Sep-21 12:14 37.716920 -122.220734 310 17ft 0kts
15-Sep-21 12:15 37.716920 -122.220734 310 17ft 0kts
15-Sep-21 12:16 37.716920 -122.220734 310 17ft 0kts
15-Sep-21 12:17 37.716920 -122.220734 310 17ft 0kts
15-Sep-21 12:18 37.716920 -122.220734 310 17ft 0kts
15-Sep-21 12:19 37.716920 -122.220734 310 17ft 0kts
15-Sep-21 12:20 37.716920 -122.220734 310 17ft 0kts
15-Sep-21 12:21 37.716920 -122.220734 310 17ft 0kts
15-Sep-21 12:22 37.716920 -122.220734 310 17ft 0kts
15-Sep-21 12:23 37.716920 -122.220734 310 17ft 0kts
15-Sep-21 12:23 37.716920 -122.220734 310 17ft 0kts
15-Sep-21 12:25 37.716920 -122.220734 310 17ft 0kts
15-Sep-21 12:26 37.716920 -122.220734 310 17ft 0kts
15-Sep-21 12:26 37.716920 -122.220734 310 17ft 0kts
15-Sep-21 12:28 37.716920 -122.220734 310 17ft 0kts
15-Sep-21 12:29 37.716920 -122.220734 310 17ft 0kts
15-Sep-21 12:30 37.716920 -122.220734 310 17ft 0kts
15-Sep-21 12:31 37.716920 -122.220734 310 17ft 0kts
15-Sep-21 12:31 37.716730 -122.220452 305 17ft 2kts
15-Sep-21 12:32 37.716711 -122.219719 239 17ft 2kts
15-Sep-21 12:34 37.716806 -122.219565 227 17ft 0kts
15-Sep-21 12:35 37.716806 -122.219565 227 17ft 0kts
15-Sep-21 12:36 37.716800 -122.219574 227 17ft 0kts
15-Sep-21 12:36 37.715644 -122.220136 148 17ft 4kts
15-Sep-21 12:37 37.713600 -122.221400 228 17ft 26kts
15-Sep-21 12:38 37.709865 -122.222960 133 17ft 12kts
15-Sep-21 12:39 37.707064 -122.218820 130 17ft 17kts
15-Sep-21 12:40 37.703835 -122.214244 145 17ft 17kts
15-Sep-21 12:41 37.702272 -122.213680 208 17ft 7kts
15-Sep-21 12:42 37.706172 -122.221283 311 17ft 111kts
15-Sep-21 12:43 37.738188 -122.271238 308 1831ft 204kts
15-Sep-21 12:44 37.779942 -122.336650 307 2304ft 253kts
15-Sep-21 12:45 37.822509 -122.411374 280 5577ft 262kts
15-Sep-21 12:46 37.791408 -122.494036 233 9603ft 286kts
15-Sep-21 12:47 37.740396 -122.583310 233 12532ft 356kts
15-Sep-21 12:48 37.677817 -122.691544 233 16511ft 397kts
15-Sep-21 12:49 37.578485 -122.737373 165 19042ft 422kts
15-Sep-21 12:50 37.464828 -122.703510 167 18998ft 417kts
15-Sep-21 12:51 37.351361 -122.673365 167 19053ft 419kts
15-Sep-21 12:52 37.234145 -122.642730 168 22795ft 438kts
15-Sep-21 12:53 37.111518 -122.610710 169 26226ft 461kts
15-Sep-21 12:54 36.984568 -122.577665 170 29710ft 468kts
15-Sep-21 12:55 36.859338 -122.545129 171 33028ft 457kts
15-Sep-21 12:56 36.736609 -122.513269 172 35045ft 454kts
15-Sep-21 12:57 36.613267 -122.481315 172 35032ft 450kts
15-Sep-21 12:58 36.490821 -122.449733 172 35046ft 450kts
15-Sep-21 12:59 36.381560 -122.380180 128 35158ft 474kts
15-Sep-21 13:00 36.299422 -122.252213 134 35048ft 471kts
15-Sep-21 13:01 36.214377 -122.128630 133 35050ft 472kts
15-Sep-21 13:02 36.128886 -122.004617 133 35049ft 473kts
15-Sep-21 13:03 36.043425 -121.881104 133 35038ft 474kts
15-Sep-21 13:04 35.957537 -121.757343 133 35046ft 473kts
15-Sep-21 13:05 35.871672 -121.634151 133 35042ft 472kts
15-Sep-21 13:06 35.785956 -121.511593 133 35027ft 472kts
15-Sep-21 13:07 35.699879 -121.388973 133 35008ft 472kts
15-Sep-21 13:08 35.614155 -121.267259 133 34990ft 472kts
15-Sep-21 13:09 35.528413 -121.145992 133 34986ft 473kts
15-Sep-21 13:10 35.446760 -121.019201 126 34997ft 475kts
15-Sep-21 13:11 35.373120 -120.888214 126 35026ft 475kts
15-Sep-21 13:12 35.297924 -120.755512 126 35035ft 475kts
15-Sep-21 13:13 35.222447 -120.622830 126 35036ft 474kts
15-Sep-21 13:14 35.148337 -120.493038 126 35037ft 474kts
15-Sep-21 13:15 35.072573 -120.360843 126 35037ft 475kts
15-Sep-21 13:16 34.996815 -120.229106 126 35033ft 473kts
15-Sep-21 13:17 34.921810 -120.099211 126 35022ft 474kts
15-Sep-21 13:18 34.845510 -119.967553 126 35009ft 475kts
15-Sep-21 13:19 34.769191 -119.836356 126 35021ft 476kts
15-Sep-21 13:20 34.694045 -119.707645 126 35029ft 475kts
15-Sep-21 13:21 34.617417 -119.576874 126 35027ft 474kts
15-Sep-21 13:22 34.540753 -119.446521 126 35028ft 475kts
15-Sep-21 13:23 34.465173 -119.318463 126 35022ft 476kts
15-Sep-21 13:24 34.388388 -119.188811 126 35026ft 476kts
15-Sep-21 13:25 34.311727 -119.059869 126 35028ft 477kts
15-Sep-21 13:26 34.236844 -118.934359 126 35036ft 477kts
15-Sep-21 13:27 34.159424 -118.805059 126 35026ft 479kts
15-Sep-21 13:28 34.080937 -118.674455 126 35013ft 485kts
15-Sep-21 13:29 34.003277 -118.545677 126 35001ft 486kts
15-Sep-21 13:30 33.924334 -118.418351 132 32834ft 494kts
15-Sep-21 13:31 33.828596 -118.296888 133 29918ft 501kts
15-Sep-21 13:32 33.739595 -118.180799 133 27941ft 488kts
15-Sep-21 13:33 33.650502 -118.063755 133 26378ft 466kts
15-Sep-21 13:34 33.567404 -117.954952 134 23369ft 426kts
15-Sep-21 13:35 33.485239 -117.857238 137 21375ft 420kts
15-Sep-21 13:36 33.400679 -117.762812 140 19525ft 407kts
15-Sep-21 13:37 33.318959 -117.675677 139 17534ft 374kts
15-Sep-21 13:38 33.244761 -117.596693 139 15557ft 360kts
15-Sep-21 13:39 33.170507 -117.518540 139 13746ft 354kts
15-Sep-21 13:40 33.094176 -117.447497 145 12031ft 342kts
15-Sep-21 13:41 33.024827 -117.389751 145 10977ft 286kts
15-Sep-21 13:42 32.962213 -117.337269 146 9948ft 266kts
15-Sep-21 13:43 32.903802 -117.288651 148 8949ft 258kts
15-Sep-21 13:44 32.845898 -117.241047 145 7967ft 256kts
15-Sep-21 13:45 32.805064 -117.183075 107 7063ft 258kts
15-Sep-21 13:46 32.787201 -117.102046 106 6149ft 241kts
15-Sep-21 13:47 32.770087 -117.028516 107 5270ft 230kts
15-Sep-21 13:48 32.748457 -116.964686 143 4927ft 198kts
15-Sep-21 13:49 32.699313 -116.966887 225 3907ft 188kts
15-Sep-21 13:50 32.693225 -117.023833 285 3146ft 173kts
15-Sep-21 13:51 32.706021 -117.076480 286 1960ft 155kts
15-Sep-21 13:52 32.717702 -117.124150 285 1253ft 146kts
15-Sep-21 13:53 32.728567 -117.168944 285 310ft 140kts
15-Sep-21 13:54 32.735273 -117.197626 258 30ft 15kts
15-Sep-21 13:55 32.734468 -117.197700 105 30ft 9kts
15-Sep-21 13:56 32.733633 -117.194216 106 30ft 10kts
15-Sep-21 13:57 32.734304 -117.190981 26 30ft 11kts
15-Sep-21 13:58 32.733975 -117.186484 106 30ft 17kts
15-Sep-21 13:59 32.734855 -117.184225 334 30ft 8kts
15-Sep-21 14:00 32.736618 -117.185019 355 30ft 0kts
15-Sep-21 14:01 32.736625 -117.185019 355 30ft 0kts
15-Sep-21 14:02 32.736625 -117.185019 355 30ft 0kts
15-Sep-21 14:03 32.736625 -117.185019 355 30ft 0kts

Navigation Log

Ident Type
Flight plan parsing failed, navigation log unavailable